메인 페이지
METAR-TAF:

METAR-TAF

공항 :

Imperial County Airport (Boley Field)

Imperial, 캘리포니아, 미국

위도: 32-50-03N, 경도: 115-34-43W, 고도: 17m

현재 날씨관측

예보는 57분 전, 18:53시(UTC)에 발표되었습니다.
여러 방향의 바람 4kt
온도 38°C
습도 12%
기압 1009 hPa
시정: 16.1km
맑음

METAR: KIPL 131853Z AUTO VRB04KT 10SM CLR 38/04 A2979 RMK AO2 SLP087 T03780039

시각: 12:50 (19:50 UTC)

예보

예보는 2 시간 30분 전, 17:20시(UTC)에 발표되었습니다.
예보 대상 시간: 13일 18시부터 14일 18시까지 (UTC)
여러 방향의 바람 5kt
시정: 10km
맑음
13일 2000시부터 (UTC)
남동10kt
시정: 10km
고도 15000ft 상공 구름 조금
14일 0000시부터 (UTC)
서남서17kt, 순간 최대 풍속 28kt
시정: 10km
맑음
14일 0600시부터 (UTC)
11kt
시정: 10km
맑음

TAF: KIPL 131720Z 1318/1418 VRB05KT P6SM SKC FM132000 13010KT P6SM FEW150 FM140000 25017G28KT P6SM SKC FM140600 27011KT P6SM SKC

4,000개 이상의 공항 관측 자료 및 예보 (METAR 및 TAF 보고).

지도상에서 검색 가능한 기상관측소가 노란 점과 빨간 점으로 표시되어 있습니다.

기상관측소 명을 보려면 표시 위로 마우스를 이동하세요.

날씨 관측과 예보를 보려면 클릭하세요.

지도 변경 : 확대하려면 엑스 표시가 있는 녹색 버튼, 축소하려면 빼기 표시가 있는 녹색 버튼, 다음 페이지의 지도를 보려면 녹색 화살표를 클릭하세요.


METAR-TAF: